IBE32DL GCXO-LEMD
Flight info
| Callsign | IBE32DL |
|---|---|
| Flight time | 2h 19m |
| Altitude | 38000 |
| Route | VASTO UN858 AKUDA DCT GIMAL DCT PESAS DCT PARKA DCT SOTUK |
| Aircraft | A346/H-SDE2E3FGHIJ3J4J5M1RWXY/LB1D1 |
Departure
| Time | 2026-05-07 19:34 |
|---|---|
| Airport | Tenerife Norte-Ciudad de La Laguna Airport (GCXO) |
Arrival
| Time | 2026-05-07 21:53 |
|---|---|
| Airport | Adolfo Suárez Madrid–Barajas Airport (LEMD) |
| Time | Latitude | Longitude | Altitude | Speed | Heading |
|---|---|---|---|---|---|
| 2026-05-07 19:00 | 28.48601 | -16.34484 | 2072 ft | 0 kts | 21° |
| 2026-05-07 19:19 | 28.48596 | -16.34486 | 2072 ft | 4 kts | 21° |
| 2026-05-07 19:19 | 28.48574 | -16.34496 | 2073 ft | 4 kts | 21° |
| 2026-05-07 19:19 | 28.48554 | -16.34504 | 2072 ft | 4 kts | 21° |
| 2026-05-07 19:19 | 28.48539 | -16.34511 | 2073 ft | 4 kts | 24° |
| 2026-05-07 19:20 | 28.48523 | -16.34522 | 2073 ft | 4 kts | 47° |
| 2026-05-07 19:20 | 28.48515 | -16.34537 | 2074 ft | 4 kts | 81° |
| 2026-05-07 19:20 | 28.48517 | -16.34560 | 2070 ft | 4 kts | 107° |
| 2026-05-07 19:20 | 28.48523 | -16.34581 | 2072 ft | 4 kts | 112° |
| 2026-05-07 19:21 | 28.48529 | -16.34597 | 2074 ft | 1 kts | 110° |
| 2026-05-07 19:21 | 28.48530 | -16.34601 | 2075 ft | 0 kts | 110° |
| 2026-05-07 19:25 | 28.48530 | -16.34600 | 2077 ft | 0 kts | 110° |
| 2026-05-07 19:25 | 28.48523 | -16.34580 | 2072 ft | 5 kts | 110° |
| 2026-05-07 19:26 | 28.48504 | -16.34522 | 2073 ft | 11 kts | 110° |
| 2026-05-07 19:26 | 28.48477 | -16.34439 | 2069 ft | 6 kts | 110° |
| 2026-05-07 19:26 | 28.48474 | -16.34428 | 2068 ft | 2 kts | 110° |
| 2026-05-07 19:26 | 28.48468 | -16.34410 | 2068 ft | 5 kts | 110° |
| 2026-05-07 19:27 | 28.48462 | -16.34392 | 2067 ft | 8 kts | 110° |
| 2026-05-07 19:27 | 28.48432 | -16.34306 | 2063 ft | 13 kts | 111° |
| 2026-05-07 19:27 | 28.48399 | -16.34207 | 2061 ft | 17 kts | 110° |
| 2026-05-07 19:28 | 28.48344 | -16.34040 | 2054 ft | 17 kts | 110° |
| 2026-05-07 19:28 | 28.48317 | -16.33959 | 2055 ft | 7 kts | 110° |
| 2026-05-07 19:28 | 28.48296 | -16.33893 | 2052 ft | 10 kts | 110° |
| 2026-05-07 19:28 | 28.48262 | -16.33792 | 2050 ft | 14 kts | 110° |
| 2026-05-07 19:29 | 28.48230 | -16.33694 | 2050 ft | 16 kts | 110° |
| 2026-05-07 19:29 | 28.48191 | -16.33577 | 2048 ft | 19 kts | 111° |
| 2026-05-07 19:29 | 28.48141 | -16.33430 | 2045 ft | 22 kts | 111° |
| 2026-05-07 19:29 | 28.48088 | -16.33268 | 2042 ft | 24 kts | 113° |
| 2026-05-07 19:30 | 28.48036 | -16.33112 | 2035 ft | 26 kts | 109° |
| 2026-05-07 19:30 | 28.47976 | -16.32939 | 2033 ft | 28 kts | 109° |
| 2026-05-07 19:30 | 28.47914 | -16.32740 | 2031 ft | 27 kts | 109° |
| 2026-05-07 19:30 | 28.47871 | -16.32617 | 2031 ft | 14 kts | 113° |
| 2026-05-07 19:31 | 28.47818 | -16.32527 | 2029 ft | 13 kts | 171° |
| 2026-05-07 19:31 | 28.47753 | -16.32564 | 2028 ft | 8 kts | 257° |
| 2026-05-07 19:31 | 28.47757 | -16.32622 | 2034 ft | 8 kts | 288° |
| 2026-05-07 19:31 | 28.47764 | -16.32641 | 2032 ft | 0 kts | 291° |
| 2026-05-07 19:32 | 28.47765 | -16.32643 | 2031 ft | 0 kts | 291° |
| 2026-05-07 19:32 | 28.47765 | -16.32644 | 2030 ft | 0 kts | 291° |
| 2026-05-07 19:32 | 28.47766 | -16.32647 | 2030 ft | 1 kts | 291° |
| 2026-05-07 19:32 | 28.47769 | -16.32657 | 2031 ft | 2 kts | 291° |
| 2026-05-07 19:33 | 28.47778 | -16.32682 | 2034 ft | 3 kts | 291° |
| 2026-05-07 19:33 | 28.47811 | -16.32782 | 2031 ft | 44 kts | 291° |
| 2026-05-07 19:33 | 28.48015 | -16.33363 | 2037 ft | 111 kts | 294° |
| 2026-05-07 19:33 | 28.48372 | -16.34396 | 2074 ft | 153 kts | 280° |
| 2026-05-07 19:34 | 28.48682 | -16.35573 | 2356 ft | 178 kts | 293° |
| 2026-05-07 19:34 | 28.49216 | -16.36992 | 3019 ft | 193 kts | 295° |
| 2026-05-07 19:34 | 28.49697 | -16.38283 | 3802 ft | 196 kts | 292° |
| 2026-05-07 19:34 | 28.50186 | -16.39726 | 4363 ft | 208 kts | 291° |
| 2026-05-07 19:35 | 28.50678 | -16.41197 | 4868 ft | 221 kts | 291° |
| 2026-05-07 19:35 | 28.51187 | -16.42700 | 5302 ft | 234 kts | 291° |
| 2026-05-07 19:35 | 28.51724 | -16.44282 | 5737 ft | 251 kts | 291° |
| 2026-05-07 19:35 | 28.52303 | -16.45975 | 6323 ft | 263 kts | 291° |
| 2026-05-07 19:36 | 28.52891 | -16.47713 | 7062 ft | 266 kts | 291° |
| 2026-05-07 19:36 | 28.53480 | -16.49474 | 7954 ft | 266 kts | 291° |
| 2026-05-07 19:36 | 28.54088 | -16.51240 | 8793 ft | 266 kts | 296° |
| 2026-05-07 19:36 | 28.55064 | -16.52752 | 9573 ft | 270 kts | 317° |
| 2026-05-07 19:37 | 28.56491 | -16.53743 | 10315 ft | 276 kts | 338° |
| 2026-05-07 19:37 | 28.58226 | -16.54088 | 10883 ft | 291 kts | 358° |
| 2026-05-07 19:37 | 28.60098 | -16.53600 | 11276 ft | 315 kts | 21° |
| 2026-05-07 19:37 | 28.61749 | -16.52292 | 11658 ft | 337 kts | 41° |
| 2026-05-07 19:38 | 28.63028 | -16.50241 | 12029 ft | 360 kts | 62° |
| 2026-05-07 19:38 | 28.63694 | -16.47681 | 12384 ft | 381 kts | 81° |
| 2026-05-07 19:38 | 28.63631 | -16.44835 | 12714 ft | 399 kts | 99° |
| 2026-05-07 19:38 | 28.62895 | -16.42264 | 13039 ft | 413 kts | 116° |
| 2026-05-07 19:39 | 28.61615 | -16.40068 | 13559 ft | 417 kts | 131° |
| 2026-05-07 19:39 | 28.59749 | -16.37728 | 14269 ft | 420 kts | 132° |
| 2026-05-07 19:39 | 28.57776 | -16.34848 | 14972 ft | 427 kts | 126° |
| 2026-05-07 19:39 | 28.56272 | -16.32157 | 15574 ft | 432 kts | 122° |
| 2026-05-07 19:40 | 28.54863 | -16.29077 | 16170 ft | 440 kts | 111° |
| 2026-05-07 19:40 | 28.54266 | -16.26051 | 16662 ft | 444 kts | 94° |
| 2026-05-07 19:40 | 28.54420 | -16.22986 | 17247 ft | 444 kts | 77° |
| 2026-05-07 19:40 | 28.55038 | -16.20226 | 17804 ft | 446 kts | 72° |
| 2026-05-07 19:41 | 28.55792 | -16.17279 | 18380 ft | 450 kts | 71° |
| 2026-05-07 19:41 | 28.56579 | -16.14236 | 18823 ft | 455 kts | 71° |
| 2026-05-07 19:41 | 28.57387 | -16.11063 | 19298 ft | 461 kts | 72° |
| 2026-05-07 19:41 | 28.58126 | -16.08108 | 19745 ft | 465 kts | 72° |
| 2026-05-07 19:42 | 28.58877 | -16.05049 | 20227 ft | 469 kts | 73° |
| 2026-05-07 19:42 | 28.59623 | -16.01961 | 20682 ft | 474 kts | 73° |
| 2026-05-07 19:42 | 28.60350 | -15.98930 | 21112 ft | 479 kts | 73° |
| 2026-05-07 19:42 | 28.61091 | -15.95814 | 21554 ft | 483 kts | 73° |
| 2026-05-07 19:43 | 28.61929 | -15.92279 | 22074 ft | 488 kts | 73° |
| 2026-05-07 19:43 | 28.62729 | -15.88899 | 22526 ft | 493 kts | 73° |
| 2026-05-07 19:43 | 28.63523 | -15.85538 | 22964 ft | 498 kts | 73° |
| 2026-05-07 19:43 | 28.64336 | -15.82090 | 23417 ft | 503 kts | 73° |
| 2026-05-07 19:44 | 28.65183 | -15.78490 | 23844 ft | 507 kts | 74° |
| 2026-05-07 19:44 | 28.66013 | -15.74964 | 24224 ft | 511 kts | 73° |
| 2026-05-07 19:44 | 28.66851 | -15.71391 | 24636 ft | 514 kts | 73° |
| 2026-05-07 19:44 | 28.67700 | -15.67769 | 25083 ft | 517 kts | 73° |
| 2026-05-07 19:45 | 28.68560 | -15.64095 | 25501 ft | 521 kts | 73° |
| 2026-05-07 19:45 | 28.69411 | -15.60464 | 25889 ft | 524 kts | 73° |
| 2026-05-07 19:45 | 28.70267 | -15.56805 | 26274 ft | 528 kts | 73° |
| 2026-05-07 19:45 | 28.71121 | -15.53150 | 26649 ft | 531 kts | 73° |
| 2026-05-07 19:46 | 28.71987 | -15.49437 | 27048 ft | 535 kts | 73° |
| 2026-05-07 19:46 | 28.72845 | -15.45751 | 27412 ft | 538 kts | 73° |
| 2026-05-07 19:46 | 28.73718 | -15.42001 | 27779 ft | 542 kts | 73° |
| 2026-05-07 19:46 | 28.74591 | -15.38239 | 28251 ft | 542 kts | 73° |
| 2026-05-07 19:47 | 28.75465 | -15.34470 | 28844 ft | 541 kts | 73° |
| 2026-05-07 19:47 | 28.76266 | -15.31010 | 29379 ft | 540 kts | 73° |
| 2026-05-07 19:47 | 28.77083 | -15.27474 | 29893 ft | 540 kts | 73° |
| 2026-05-07 19:47 | 28.77962 | -15.23671 | 30373 ft | 540 kts | 73° |
| 2026-05-07 19:48 | 28.78850 | -15.19823 | 30837 ft | 539 kts | 73° |
| 2026-05-07 19:48 | 28.79723 | -15.16036 | 31288 ft | 539 kts | 73° |
| 2026-05-07 19:48 | 28.80601 | -15.12222 | 31773 ft | 538 kts | 73° |
| 2026-05-07 19:48 | 28.81461 | -15.08479 | 32230 ft | 537 kts | 73° |
| 2026-05-07 19:49 | 28.82325 | -15.04712 | 32702 ft | 536 kts | 73° |
| 2026-05-07 19:49 | 28.83179 | -15.00985 | 33153 ft | 535 kts | 73° |
| 2026-05-07 19:49 | 28.84045 | -14.97195 | 33595 ft | 535 kts | 73° |
| 2026-05-07 19:49 | 28.84919 | -14.93481 | 34044 ft | 534 kts | 71° |
| 2026-05-07 19:50 | 28.86135 | -14.89730 | 34419 ft | 531 kts | 63° |
| 2026-05-07 19:50 | 28.87690 | -14.86312 | 34738 ft | 527 kts | 54° |
| 2026-05-07 19:50 | 28.89578 | -14.83193 | 35055 ft | 522 kts | 46° |
| 2026-05-07 19:50 | 28.91794 | -14.80364 | 35381 ft | 516 kts | 38° |
| 2026-05-07 19:51 | 28.94185 | -14.77967 | 35707 ft | 509 kts | 31° |
| 2026-05-07 19:51 | 28.96777 | -14.75877 | 36028 ft | 505 kts | 26° |
| 2026-05-07 19:51 | 28.99373 | -14.73949 | 36331 ft | 503 kts | 25° |
| 2026-05-07 19:51 | 29.01983 | -14.72044 | 36640 ft | 504 kts | 25° |
| 2026-05-07 19:52 | 29.04637 | -14.70093 | 36874 ft | 505 kts | 25° |
| 2026-05-07 19:52 | 29.07316 | -14.68108 | 37084 ft | 507 kts | 25° |
| 2026-05-07 19:52 | 29.09960 | -14.66132 | 37277 ft | 508 kts | 25° |
| 2026-05-07 19:52 | 29.12611 | -14.64137 | 37497 ft | 509 kts | 26° |
| 2026-05-07 19:53 | 29.15240 | -14.62147 | 37711 ft | 510 kts | 26° |
| 2026-05-07 19:53 | 29.17902 | -14.60126 | 37919 ft | 511 kts | 26° |
| 2026-05-07 19:53 | 29.23038 | -14.56221 | 38021 ft | 513 kts | 26° |
| 2026-05-07 19:54 | 29.28424 | -14.52119 | 38009 ft | 516 kts | 26° |
| 2026-05-07 19:54 | 29.33726 | -14.48069 | 38042 ft | 517 kts | 25° |
| 2026-05-07 19:55 | 29.39124 | -14.43942 | 38019 ft | 517 kts | 25° |
| 2026-05-07 19:55 | 29.44315 | -14.39976 | 38016 ft | 518 kts | 25° |
| 2026-05-07 19:56 | 29.49574 | -14.35949 | 38013 ft | 518 kts | 25° |
| 2026-05-07 19:56 | 29.55054 | -14.31748 | 38012 ft | 519 kts | 25° |
| 2026-05-07 19:57 | 29.60571 | -14.27512 | 38007 ft | 519 kts | 25° |
| 2026-05-07 19:57 | 29.65931 | -14.23386 | 38020 ft | 520 kts | 25° |
| 2026-05-07 19:58 | 29.71288 | -14.19266 | 38008 ft | 522 kts | 25° |
| 2026-05-07 19:58 | 29.77079 | -14.14806 | 38007 ft | 524 kts | 25° |
| 2026-05-07 19:59 | 29.82883 | -14.10324 | 38009 ft | 525 kts | 25° |
| 2026-05-07 19:59 | 29.88429 | -14.06036 | 38008 ft | 525 kts | 25° |
| 2026-05-07 20:00 | 29.94123 | -14.01625 | 38003 ft | 526 kts | 25° |
| 2026-05-07 20:00 | 29.99608 | -13.97372 | 38008 ft | 526 kts | 25° |
| 2026-05-07 20:01 | 30.04943 | -13.93230 | 38006 ft | 526 kts | 25° |
| 2026-05-07 20:01 | 30.10901 | -13.88597 | 38010 ft | 526 kts | 25° |
| 2026-05-07 20:02 | 30.16161 | -13.84501 | 38010 ft | 526 kts | 25° |
| 2026-05-07 20:02 | 30.21265 | -13.80523 | 38013 ft | 526 kts | 25° |
| 2026-05-07 20:03 | 30.26504 | -13.76429 | 38024 ft | 528 kts | 25° |
| 2026-05-07 20:03 | 30.31664 | -13.72397 | 38015 ft | 529 kts | 25° |
| 2026-05-07 20:04 | 30.36890 | -13.68306 | 38004 ft | 529 kts | 25° |
| 2026-05-07 20:04 | 30.42318 | -13.64051 | 38012 ft | 529 kts | 25° |
| 2026-05-07 20:05 | 30.47508 | -13.59976 | 38005 ft | 529 kts | 25° |
| 2026-05-07 20:05 | 30.52780 | -13.55827 | 38004 ft | 529 kts | 25° |
| 2026-05-07 20:06 | 30.58086 | -13.51611 | 38022 ft | 531 kts | 26° |
| 2026-05-07 20:06 | 30.63621 | -13.47201 | 37998 ft | 532 kts | 26° |
| 2026-05-07 20:07 | 30.68975 | -13.42930 | 38003 ft | 533 kts | 26° |
| 2026-05-07 20:07 | 30.74339 | -13.38644 | 38004 ft | 533 kts | 26° |
| 2026-05-07 20:08 | 30.79607 | -13.34431 | 37999 ft | 533 kts | 26° |
| 2026-05-07 20:08 | 30.84997 | -13.30114 | 38045 ft | 534 kts | 26° |
| 2026-05-07 20:09 | 30.90429 | -13.25760 | 38003 ft | 536 kts | 26° |
| 2026-05-07 20:10 | 30.98474 | -13.19352 | 38002 ft | 536 kts | 26° |
| 2026-05-07 20:10 | 31.03939 | -13.15015 | 37999 ft | 536 kts | 26° |
| 2026-05-07 20:11 | 31.09374 | -13.10692 | 37992 ft | 537 kts | 26° |
| 2026-05-07 20:11 | 31.14917 | -13.06275 | 38043 ft | 538 kts | 26° |
| 2026-05-07 20:12 | 31.20366 | -13.01929 | 37998 ft | 540 kts | 26° |
| 2026-05-07 20:12 | 31.25748 | -12.97621 | 37991 ft | 541 kts | 26° |
| 2026-05-07 20:13 | 31.31020 | -12.93395 | 37991 ft | 541 kts | 26° |
| 2026-05-07 20:13 | 31.36618 | -12.88903 | 37988 ft | 541 kts | 26° |
| 2026-05-07 20:14 | 31.42073 | -12.84522 | 37988 ft | 541 kts | 26° |
| 2026-05-07 20:14 | 31.47553 | -12.80124 | 38002 ft | 543 kts | 27° |
| 2026-05-07 20:15 | 31.53181 | -12.75588 | 37976 ft | 544 kts | 27° |
| 2026-05-07 20:15 | 31.58512 | -12.71285 | 37977 ft | 545 kts | 27° |
| 2026-05-07 20:16 | 31.63838 | -12.66979 | 37979 ft | 545 kts | 27° |
| 2026-05-07 20:16 | 31.69283 | -12.62572 | 37989 ft | 545 kts | 27° |
| 2026-05-07 20:17 | 31.74767 | -12.58136 | 38012 ft | 546 kts | 28° |
| 2026-05-07 20:17 | 31.80631 | -12.53380 | 37986 ft | 547 kts | 28° |
| 2026-05-07 20:18 | 31.86542 | -12.48568 | 37985 ft | 547 kts | 28° |
| 2026-05-07 20:18 | 31.92039 | -12.44090 | 37982 ft | 547 kts | 28° |
| 2026-05-07 20:19 | 31.97948 | -12.39273 | 37967 ft | 547 kts | 28° |
| 2026-05-07 20:19 | 32.03543 | -12.34729 | 38009 ft | 548 kts | 28° |
| 2026-05-07 20:20 | 32.09069 | -12.30241 | 37985 ft | 549 kts | 29° |
| 2026-05-07 20:20 | 32.14553 | -12.25764 | 37981 ft | 549 kts | 29° |
| 2026-05-07 20:21 | 32.20139 | -12.21197 | 37983 ft | 549 kts | 29° |
| 2026-05-07 20:21 | 32.25769 | -12.16590 | 37974 ft | 549 kts | 29° |
| 2026-05-07 20:22 | 32.31368 | -12.12003 | 38036 ft | 550 kts | 30° |
| 2026-05-07 20:22 | 32.36964 | -12.07425 | 37983 ft | 551 kts | 30° |
| 2026-05-07 20:23 | 32.42599 | -12.02785 | 37942 ft | 551 kts | 30° |
| 2026-05-07 20:23 | 32.48546 | -11.97880 | 37968 ft | 550 kts | 30° |
| 2026-05-07 20:24 | 32.54698 | -11.92807 | 37976 ft | 550 kts | 30° |
| 2026-05-07 20:24 | 32.60924 | -11.87672 | 38028 ft | 550 kts | 31° |
| 2026-05-07 20:25 | 32.66647 | -11.82945 | 37981 ft | 551 kts | 31° |
| 2026-05-07 20:25 | 32.72238 | -11.78304 | 37975 ft | 551 kts | 31° |
| 2026-05-07 20:26 | 32.78058 | -11.73469 | 37972 ft | 551 kts | 31° |
| 2026-05-07 20:26 | 32.83784 | -11.68708 | 37974 ft | 551 kts | 31° |
| 2026-05-07 20:27 | 32.89302 | -11.64113 | 37977 ft | 551 kts | 31° |
| 2026-05-07 20:27 | 32.95006 | -11.59355 | 37974 ft | 551 kts | 31° |
| 2026-05-07 20:28 | 33.00592 | -11.54688 | 37975 ft | 551 kts | 31° |
| 2026-05-07 20:28 | 33.05996 | -11.50167 | 37974 ft | 551 kts | 31° |
| 2026-05-07 20:29 | 33.11479 | -11.45571 | 37977 ft | 551 kts | 31° |
| 2026-05-07 20:29 | 33.17160 | -11.40803 | 38004 ft | 551 kts | 32° |
| 2026-05-07 20:30 | 33.22869 | -11.35989 | 37980 ft | 551 kts | 32° |
| 2026-05-07 20:30 | 33.28426 | -11.31271 | 37958 ft | 551 kts | 32° |
| 2026-05-07 20:31 | 33.33955 | -11.26570 | 37975 ft | 550 kts | 32° |
| 2026-05-07 20:31 | 33.39418 | -11.21921 | 37976 ft | 550 kts | 32° |
| 2026-05-07 20:32 | 33.44874 | -11.17271 | 38009 ft | 550 kts | 32° |
| 2026-05-07 20:32 | 33.50458 | -11.12511 | 37983 ft | 550 kts | 32° |
| 2026-05-07 20:33 | 33.55968 | -11.07799 | 37983 ft | 550 kts | 33° |
| 2026-05-07 20:33 | 33.61355 | -11.03184 | 37979 ft | 550 kts | 33° |
| 2026-05-07 20:34 | 33.66832 | -10.98486 | 37976 ft | 550 kts | 33° |
| 2026-05-07 20:34 | 33.72125 | -10.93940 | 37942 ft | 550 kts | 33° |
| 2026-05-07 20:35 | 33.77557 | -10.89272 | 37982 ft | 548 kts | 33° |
| 2026-05-07 20:35 | 33.82918 | -10.84652 | 37974 ft | 548 kts | 33° |
| 2026-05-07 20:36 | 33.88370 | -10.79944 | 37975 ft | 548 kts | 33° |
| 2026-05-07 20:36 | 33.93897 | -10.75166 | 37975 ft | 548 kts | 33° |
| 2026-05-07 20:37 | 33.99455 | -10.70353 | 37974 ft | 548 kts | 33° |
| 2026-05-07 20:37 | 34.04868 | -10.65665 | 37978 ft | 548 kts | 33° |
| 2026-05-07 20:38 | 34.10343 | -10.60908 | 37977 ft | 548 kts | 34° |
| 2026-05-07 20:38 | 34.15936 | -10.56039 | 37948 ft | 548 kts | 34° |
| 2026-05-07 20:39 | 34.21260 | -10.51397 | 37974 ft | 547 kts | 34° |
| 2026-05-07 20:39 | 34.26716 | -10.46635 | 37975 ft | 547 kts | 34° |
| 2026-05-07 20:40 | 34.32001 | -10.42017 | 37971 ft | 546 kts | 34° |
| 2026-05-07 20:40 | 34.37346 | -10.37337 | 37970 ft | 546 kts | 34° |
| 2026-05-07 20:41 | 34.42884 | -10.32476 | 37970 ft | 546 kts | 34° |
| 2026-05-07 20:41 | 34.48206 | -10.27798 | 37969 ft | 546 kts | 34° |
| 2026-05-07 20:42 | 34.53987 | -10.22709 | 37969 ft | 546 kts | 34° |
| 2026-05-07 20:42 | 34.59373 | -10.17960 | 37975 ft | 545 kts | 34° |
| 2026-05-07 20:43 | 34.64787 | -10.13189 | 37958 ft | 543 kts | 34° |
| 2026-05-07 20:43 | 34.70142 | -10.08488 | 37969 ft | 543 kts | 34° |
| 2026-05-07 20:44 | 34.75445 | -10.03826 | 37972 ft | 543 kts | 34° |
| 2026-05-07 20:44 | 34.80863 | -9.99052 | 37956 ft | 543 kts | 34° |
| 2026-05-07 20:45 | 34.86296 | -9.94259 | 37983 ft | 543 kts | 34° |
| 2026-05-07 20:45 | 34.91601 | -9.89568 | 37969 ft | 542 kts | 35° |
| 2026-05-07 20:46 | 34.97053 | -9.84735 | 37969 ft | 542 kts | 35° |
| 2026-05-07 20:46 | 35.02278 | -9.80091 | 37953 ft | 540 kts | 34° |
| 2026-05-07 20:47 | 35.07601 | -9.75358 | 37961 ft | 539 kts | 34° |
| 2026-05-07 20:47 | 35.12972 | -9.70581 | 37996 ft | 539 kts | 35° |
| 2026-05-07 20:48 | 35.18344 | -9.65793 | 37964 ft | 538 kts | 35° |
| 2026-05-07 20:48 | 35.23732 | -9.60978 | 37965 ft | 538 kts | 35° |
| 2026-05-07 20:49 | 35.29204 | -9.56080 | 37969 ft | 538 kts | 35° |
| 2026-05-07 20:49 | 35.34399 | -9.51422 | 37966 ft | 538 kts | 35° |
| 2026-05-07 20:50 | 35.39801 | -9.46573 | 37978 ft | 538 kts | 35° |
| 2026-05-07 20:50 | 35.45076 | -9.41825 | 37958 ft | 536 kts | 35° |
| 2026-05-07 20:51 | 35.50282 | -9.37135 | 37965 ft | 535 kts | 35° |
| 2026-05-07 20:51 | 35.55594 | -9.32343 | 37967 ft | 535 kts | 35° |
| 2026-05-07 20:52 | 35.60768 | -9.27667 | 37963 ft | 535 kts | 35° |
| 2026-05-07 20:52 | 35.65959 | -9.22967 | 37962 ft | 535 kts | 35° |
| 2026-05-07 20:53 | 35.71035 | -9.18364 | 37963 ft | 535 kts | 35° |
| 2026-05-07 20:53 | 35.76217 | -9.13655 | 37960 ft | 535 kts | 35° |
| 2026-05-07 20:54 | 35.81404 | -9.08935 | 37932 ft | 535 kts | 35° |
| 2026-05-07 20:54 | 35.86770 | -9.04036 | 37964 ft | 535 kts | 34° |
| 2026-05-07 20:55 | 35.92061 | -8.99208 | 37974 ft | 535 kts | 35° |
| 2026-05-07 20:55 | 35.97244 | -8.94263 | 37963 ft | 536 kts | 39° |
| 2026-05-07 20:56 | 36.01996 | -8.88904 | 37962 ft | 536 kts | 43° |
| 2026-05-07 20:56 | 36.06748 | -8.83294 | 37960 ft | 536 kts | 43° |
| 2026-05-07 20:57 | 36.11561 | -8.77609 | 37956 ft | 536 kts | 43° |
| 2026-05-07 20:57 | 36.16342 | -8.71982 | 37954 ft | 536 kts | 43° |
| 2026-05-07 20:58 | 36.21123 | -8.66354 | 37971 ft | 534 kts | 43° |
| 2026-05-07 20:58 | 36.25831 | -8.60814 | 37949 ft | 532 kts | 43° |
| 2026-05-07 20:59 | 36.30618 | -8.55169 | 37969 ft | 532 kts | 43° |
| 2026-05-07 20:59 | 36.35389 | -8.49533 | 37947 ft | 532 kts | 43° |
| 2026-05-07 21:00 | 36.40091 | -8.43966 | 37954 ft | 532 kts | 43° |
| 2026-05-07 21:00 | 36.44884 | -8.38281 | 37945 ft | 532 kts | 43° |
| 2026-05-07 21:01 | 36.49734 | -8.32516 | 37932 ft | 530 kts | 43° |
| 2026-05-07 21:01 | 36.54412 | -8.26941 | 37958 ft | 529 kts | 43° |
| 2026-05-07 21:02 | 36.59027 | -8.21442 | 37934 ft | 529 kts | 43° |
| 2026-05-07 21:02 | 36.63766 | -8.15782 | 37932 ft | 529 kts | 43° |
| 2026-05-07 21:03 | 36.68450 | -8.10175 | 37948 ft | 529 kts | 43° |
| 2026-05-07 21:03 | 36.73210 | -8.04193 | 37944 ft | 529 kts | 48° |
| 2026-05-07 21:04 | 36.77133 | -7.98145 | 37936 ft | 529 kts | 55° |
| 2026-05-07 21:04 | 36.80555 | -7.91479 | 37932 ft | 528 kts | 62° |
| 2026-05-07 21:05 | 36.83720 | -7.84232 | 37926 ft | 527 kts | 63° |
| 2026-05-07 21:05 | 36.86758 | -7.77177 | 37927 ft | 527 kts | 63° |
| 2026-05-07 21:06 | 36.89909 | -7.69934 | 37929 ft | 527 kts | 63° |
| 2026-05-07 21:06 | 36.93220 | -7.62357 | 37928 ft | 527 kts | 63° |
| 2026-05-07 21:07 | 36.96117 | -7.55712 | 37911 ft | 527 kts | 63° |
| 2026-05-07 21:07 | 36.99404 | -7.48200 | 37932 ft | 527 kts | 61° |
| 2026-05-07 21:08 | 37.03530 | -7.40323 | 37919 ft | 526 kts | 53° |
| 2026-05-07 21:08 | 37.07784 | -7.34025 | 37919 ft | 526 kts | 45° |
| 2026-05-07 21:09 | 37.11760 | -7.29251 | 37920 ft | 525 kts | 40° |
| 2026-05-07 21:09 | 37.16726 | -7.23835 | 37916 ft | 525 kts | 39° |
| 2026-05-07 21:10 | 37.21993 | -7.18106 | 37932 ft | 525 kts | 39° |
| 2026-05-07 21:10 | 37.28063 | -7.11439 | 37930 ft | 526 kts | 39° |
| 2026-05-07 21:11 | 37.32398 | -7.06650 | 37925 ft | 527 kts | 39° |
| 2026-05-07 21:11 | 37.40559 | -6.97600 | 37920 ft | 527 kts | 39° |
| 2026-05-07 21:12 | 37.46507 | -6.90986 | 37922 ft | 527 kts | 40° |
| 2026-05-07 21:12 | 37.50903 | -6.86087 | 37922 ft | 527 kts | 40° |
| 2026-05-07 21:13 | 37.56138 | -6.80236 | 37924 ft | 526 kts | 39° |
| 2026-05-07 21:13 | 37.61377 | -6.74378 | 37924 ft | 526 kts | 39° |
| 2026-05-07 21:14 | 37.66521 | -6.68618 | 37923 ft | 526 kts | 39° |
| 2026-05-07 21:14 | 37.71599 | -6.62919 | 37925 ft | 526 kts | 39° |
| 2026-05-07 21:15 | 37.76456 | -6.57456 | 37929 ft | 526 kts | 39° |
| 2026-05-07 21:15 | 37.81368 | -6.51919 | 37929 ft | 525 kts | 39° |
| 2026-05-07 21:16 | 37.86214 | -6.46448 | 37911 ft | 524 kts | 39° |
| 2026-05-07 21:16 | 37.91323 | -6.40663 | 37919 ft | 524 kts | 39° |
| 2026-05-07 21:17 | 37.96399 | -6.34914 | 37920 ft | 524 kts | 39° |
| 2026-05-07 21:17 | 38.01449 | -6.29183 | 37921 ft | 524 kts | 39° |
| 2026-05-07 21:18 | 38.06351 | -6.23607 | 37929 ft | 524 kts | 39° |
| 2026-05-07 21:18 | 38.11319 | -6.17945 | 37924 ft | 524 kts | 39° |
| 2026-05-07 21:19 | 38.16306 | -6.12252 | 37919 ft | 524 kts | 39° |
| 2026-05-07 21:19 | 38.21340 | -6.06486 | 37911 ft | 524 kts | 39° |
| 2026-05-07 21:20 | 38.26301 | -6.00796 | 37912 ft | 523 kts | 39° |
| 2026-05-07 21:20 | 38.31073 | -5.95318 | 37910 ft | 523 kts | 39° |
| 2026-05-07 21:21 | 38.36107 | -5.89528 | 37906 ft | 523 kts | 39° |
| 2026-05-07 21:21 | 38.41081 | -5.83793 | 37904 ft | 523 kts | 39° |
| 2026-05-07 21:22 | 38.46302 | -5.77763 | 37903 ft | 523 kts | 39° |
| 2026-05-07 21:22 | 38.51514 | -5.71729 | 37914 ft | 523 kts | 39° |
| 2026-05-07 21:23 | 38.56427 | -5.66019 | 37901 ft | 523 kts | 38° |
| 2026-05-07 21:23 | 38.61473 | -5.60159 | 37905 ft | 523 kts | 38° |
| 2026-05-07 21:24 | 38.66583 | -5.54212 | 37892 ft | 524 kts | 39° |
| 2026-05-07 21:24 | 38.71870 | -5.48043 | 37350 ft | 521 kts | 39° |
| 2026-05-07 21:25 | 38.74569 | -5.44893 | 36298 ft | 530 kts | 39° |
| 2026-05-07 21:25 | 38.77100 | -5.41939 | 35434 ft | 537 kts | 39° |
| 2026-05-07 21:25 | 38.79742 | -5.38844 | 34770 ft | 538 kts | 39° |
| 2026-05-07 21:25 | 38.82318 | -5.35821 | 34214 ft | 536 kts | 39° |
| 2026-05-07 21:26 | 38.84907 | -5.32780 | 33617 ft | 535 kts | 39° |
| 2026-05-07 21:26 | 38.87505 | -5.29720 | 32947 ft | 535 kts | 39° |
| 2026-05-07 21:26 | 38.90083 | -5.26687 | 32309 ft | 534 kts | 39° |
| 2026-05-07 21:26 | 38.92616 | -5.23704 | 31689 ft | 532 kts | 40° |
| 2026-05-07 21:27 | 38.95312 | -5.20526 | 31053 ft | 531 kts | 40° |
| 2026-05-07 21:27 | 38.96547 | -5.19055 | 30754 ft | 530 kts | 41° |
| 2026-05-07 21:27 | 38.98806 | -5.16080 | 30169 ft | 530 kts | 46° |
| 2026-05-07 21:27 | 39.00890 | -5.12874 | 29547 ft | 530 kts | 51° |
| 2026-05-07 21:28 | 39.02597 | -5.09790 | 28942 ft | 529 kts | 55° |
| 2026-05-07 21:28 | 39.04377 | -5.06187 | 28280 ft | 527 kts | 57° |
| 2026-05-07 21:28 | 39.06171 | -5.02400 | 27619 ft | 525 kts | 58° |
| 2026-05-07 21:28 | 39.07911 | -4.98689 | 27099 ft | 520 kts | 58° |
| 2026-05-07 21:29 | 39.09686 | -4.94920 | 26632 ft | 513 kts | 58° |
| 2026-05-07 21:29 | 39.11437 | -4.91218 | 26193 ft | 506 kts | 57° |
| 2026-05-07 21:29 | 39.13182 | -4.87560 | 25753 ft | 501 kts | 57° |
| 2026-05-07 21:29 | 39.14811 | -4.84158 | 25252 ft | 497 kts | 57° |
| 2026-05-07 21:30 | 39.16383 | -4.80877 | 24759 ft | 494 kts | 57° |
| 2026-05-07 21:30 | 39.18125 | -4.77381 | 24263 ft | 490 kts | 54° |
| 2026-05-07 21:30 | 39.20100 | -4.73976 | 23774 ft | 485 kts | 49° |
| 2026-05-07 21:30 | 39.22262 | -4.70807 | 23151 ft | 482 kts | 45° |
| 2026-05-07 21:31 | 39.24493 | -4.67873 | 22624 ft | 477 kts | 43° |
| 2026-05-07 21:31 | 39.26795 | -4.64929 | 22163 ft | 471 kts | 43° |
| 2026-05-07 21:31 | 39.29017 | -4.62094 | 21729 ft | 465 kts | 43° |
| 2026-05-07 21:31 | 39.31312 | -4.59153 | 21296 ft | 459 kts | 43° |
| 2026-05-07 21:32 | 39.33442 | -4.56409 | 20896 ft | 453 kts | 43° |
| 2026-05-07 21:32 | 39.35586 | -4.53631 | 20505 ft | 447 kts | 43° |
| 2026-05-07 21:32 | 39.37654 | -4.50948 | 20109 ft | 441 kts | 43° |
| 2026-05-07 21:32 | 39.39758 | -4.48214 | 19727 ft | 436 kts | 44° |
| 2026-05-07 21:33 | 39.41870 | -4.45466 | 19327 ft | 432 kts | 44° |
| 2026-05-07 21:33 | 39.43900 | -4.42823 | 18933 ft | 428 kts | 44° |
| 2026-05-07 21:33 | 39.45942 | -4.40160 | 18534 ft | 424 kts | 44° |
| 2026-05-07 21:33 | 39.47991 | -4.37485 | 18104 ft | 420 kts | 44° |
| 2026-05-07 21:34 | 39.50038 | -4.34810 | 17660 ft | 416 kts | 44° |
| 2026-05-07 21:34 | 39.52154 | -4.32044 | 17229 ft | 411 kts | 44° |
| 2026-05-07 21:34 | 39.54101 | -4.29498 | 16842 ft | 406 kts | 44° |
| 2026-05-07 21:34 | 39.56071 | -4.26919 | 16455 ft | 402 kts | 45° |
| 2026-05-07 21:35 | 39.58081 | -4.24284 | 16037 ft | 398 kts | 45° |
| 2026-05-07 21:35 | 39.59898 | -4.21900 | 15646 ft | 396 kts | 45° |
| 2026-05-07 21:35 | 39.61724 | -4.19501 | 15333 ft | 390 kts | 45° |
| 2026-05-07 21:35 | 39.63536 | -4.17117 | 15257 ft | 376 kts | 45° |
| 2026-05-07 21:36 | 39.65212 | -4.14911 | 15160 ft | 364 kts | 45° |
| 2026-05-07 21:36 | 39.66798 | -4.12821 | 15072 ft | 353 kts | 45° |
| 2026-05-07 21:36 | 39.68492 | -4.10590 | 14969 ft | 342 kts | 45° |
| 2026-05-07 21:36 | 39.70042 | -4.08548 | 14848 ft | 332 kts | 45° |
| 2026-05-07 21:37 | 39.71524 | -4.06595 | 14719 ft | 323 kts | 45° |
| 2026-05-07 21:37 | 39.72974 | -4.04681 | 14535 ft | 316 kts | 46° |
| 2026-05-07 21:37 | 39.74437 | -4.02750 | 14405 ft | 306 kts | 46° |
| 2026-05-07 21:37 | 39.75819 | -4.00923 | 14328 ft | 296 kts | 46° |
| 2026-05-07 21:38 | 39.77186 | -3.99114 | 14220 ft | 285 kts | 46° |
| 2026-05-07 21:38 | 39.78515 | -3.97356 | 14132 ft | 280 kts | 46° |
| 2026-05-07 21:38 | 39.79842 | -3.95598 | 14026 ft | 279 kts | 46° |
| 2026-05-07 21:38 | 39.81137 | -3.93882 | 13915 ft | 279 kts | 46° |
| 2026-05-07 21:39 | 39.82459 | -3.92131 | 13905 ft | 279 kts | 46° |
| 2026-05-07 21:39 | 39.83744 | -3.90426 | 13915 ft | 279 kts | 46° |
| 2026-05-07 21:39 | 39.84981 | -3.88785 | 13932 ft | 279 kts | 46° |
| 2026-05-07 21:39 | 39.86234 | -3.87122 | 13932 ft | 279 kts | 46° |
| 2026-05-07 21:40 | 39.87532 | -3.85396 | 13928 ft | 279 kts | 46° |
| 2026-05-07 21:40 | 39.88790 | -3.83725 | 13815 ft | 280 kts | 46° |
| 2026-05-07 21:40 | 39.90063 | -3.82033 | 13443 ft | 281 kts | 46° |
| 2026-05-07 21:40 | 39.91355 | -3.80313 | 13127 ft | 279 kts | 46° |
| 2026-05-07 21:41 | 39.92610 | -3.78644 | 12827 ft | 277 kts | 46° |
| 2026-05-07 21:41 | 39.93868 | -3.76968 | 12550 ft | 275 kts | 46° |
| 2026-05-07 21:41 | 39.95088 | -3.75340 | 12275 ft | 272 kts | 46° |
| 2026-05-07 21:41 | 39.96365 | -3.73638 | 11988 ft | 271 kts | 46° |
| 2026-05-07 21:42 | 39.97538 | -3.72071 | 11722 ft | 271 kts | 46° |
| 2026-05-07 21:42 | 39.98725 | -3.70487 | 11467 ft | 270 kts | 46° |
| 2026-05-07 21:42 | 39.99920 | -3.68890 | 11200 ft | 269 kts | 46° |
| 2026-05-07 21:42 | 40.01102 | -3.67309 | 10936 ft | 268 kts | 46° |
| 2026-05-07 21:43 | 40.02280 | -3.65732 | 10674 ft | 267 kts | 46° |
| 2026-05-07 21:43 | 40.03484 | -3.64122 | 10412 ft | 267 kts | 46° |
| 2026-05-07 21:43 | 40.04650 | -3.62562 | 10153 ft | 266 kts | 46° |
| 2026-05-07 21:43 | 40.05871 | -3.60927 | 9887 ft | 265 kts | 46° |
| 2026-05-07 21:44 | 40.07083 | -3.59304 | 9602 ft | 264 kts | 46° |
| 2026-05-07 21:44 | 40.08280 | -3.57702 | 9341 ft | 263 kts | 46° |
| 2026-05-07 21:44 | 40.09423 | -3.56169 | 9101 ft | 262 kts | 46° |
| 2026-05-07 21:44 | 40.10652 | -3.54519 | 8825 ft | 260 kts | 46° |
| 2026-05-07 21:45 | 40.11854 | -3.52904 | 8557 ft | 259 kts | 46° |
| 2026-05-07 21:45 | 40.13046 | -3.51303 | 8308 ft | 257 kts | 46° |
| 2026-05-07 21:45 | 40.14202 | -3.49750 | 8061 ft | 256 kts | 47° |
| 2026-05-07 21:45 | 40.15413 | -3.48121 | 7792 ft | 254 kts | 47° |
| 2026-05-07 21:46 | 40.16560 | -3.46579 | 7533 ft | 253 kts | 46° |
| 2026-05-07 21:46 | 40.17323 | -3.45610 | 7384 ft | 253 kts | 44° |
| 2026-05-07 21:46 | 40.18324 | -3.44415 | 7171 ft | 252 kts | 43° |
| 2026-05-07 21:46 | 40.19522 | -3.43007 | 6921 ft | 250 kts | 43° |
| 2026-05-07 21:47 | 40.20743 | -3.41653 | 6675 ft | 249 kts | 37° |
| 2026-05-07 21:47 | 40.22075 | -3.40508 | 6427 ft | 248 kts | 31° |
| 2026-05-07 21:47 | 40.23433 | -3.39506 | 6186 ft | 248 kts | 30° |
| 2026-05-07 21:47 | 40.24859 | -3.38552 | 5926 ft | 247 kts | 21° |
| 2026-05-07 21:48 | 40.26412 | -3.38056 | 5668 ft | 247 kts | 6° |
| 2026-05-07 21:48 | 40.28018 | -3.37905 | 5419 ft | 247 kts | 3° |
| 2026-05-07 21:48 | 40.29731 | -3.37815 | 5149 ft | 247 kts | 3° |
| 2026-05-07 21:48 | 40.31332 | -3.37876 | 4956 ft | 244 kts | 344° |
| 2026-05-07 21:49 | 40.32814 | -3.38759 | 4978 ft | 246 kts | 326° |
| 2026-05-07 21:49 | 40.34075 | -3.39966 | 4972 ft | 237 kts | 320° |
| 2026-05-07 21:49 | 40.35232 | -3.41201 | 4921 ft | 235 kts | 319° |
| 2026-05-07 21:49 | 40.36457 | -3.42501 | 4651 ft | 236 kts | 320° |
| 2026-05-07 21:50 | 40.37544 | -3.43625 | 4406 ft | 236 kts | 321° |
| 2026-05-07 21:50 | 40.38697 | -3.44802 | 4142 ft | 233 kts | 322° |
| 2026-05-07 21:50 | 40.39847 | -3.45969 | 3831 ft | 228 kts | 322° |
| 2026-05-07 21:50 | 40.40957 | -3.47099 | 3526 ft | 218 kts | 322° |
| 2026-05-07 21:51 | 40.42133 | -3.48296 | 3233 ft | 205 kts | 322° |
| 2026-05-07 21:51 | 40.43140 | -3.49323 | 2960 ft | 192 kts | 322° |
| 2026-05-07 21:51 | 40.43637 | -3.49845 | 2867 ft | 183 kts | 321° |
| 2026-05-07 21:51 | 40.43703 | -3.49916 | 2862 ft | 182 kts | 321° |
| 2026-05-07 21:52 | 40.43941 | -3.50167 | 2806 ft | 179 kts | 322° |
| 2026-05-07 21:52 | 40.44871 | -3.51081 | 2520 ft | 169 kts | 321° |
| 2026-05-07 21:52 | 40.45608 | -3.51863 | 2357 ft | 163 kts | 322° |
| 2026-05-07 21:52 | 40.46353 | -3.52610 | 2168 ft | 160 kts | 323° |
| 2026-05-07 21:53 | 40.47125 | -3.53392 | 2003 ft | 158 kts | 323° |
| 2026-05-07 21:53 | 40.47924 | -3.54203 | 1937 ft | 133 kts | 323° |
| 2026-05-07 21:53 | 40.48487 | -3.54762 | 1948 ft | 69 kts | 320° |
| 2026-05-07 21:53 | 40.48700 | -3.55019 | 1957 ft | 32 kts | 308° |
| 2026-05-07 21:54 | 40.48806 | -3.55234 | 1960 ft | 26 kts | 295° |
| 2026-05-07 21:54 | 40.48870 | -3.55424 | 1960 ft | 22 kts | 300° |
| 2026-05-07 21:54 | 40.48970 | -3.55546 | 1962 ft | 23 kts | 321° |
| 2026-05-07 21:54 | 40.49093 | -3.55675 | 1965 ft | 23 kts | 325° |
| 2026-05-07 21:55 | 40.49221 | -3.55794 | 1974 ft | 23 kts | 322° |
| 2026-05-07 21:55 | 40.49349 | -3.55924 | 1968 ft | 20 kts | 322° |
| 2026-05-07 21:55 | 40.49433 | -3.56012 | 1970 ft | 19 kts | 322° |
| 2026-05-07 21:55 | 40.49512 | -3.56114 | 1968 ft | 12 kts | 289° |
| 2026-05-07 21:56 | 40.49478 | -3.56202 | 1968 ft | 13 kts | 214° |
| 2026-05-07 21:56 | 40.49423 | -3.56234 | 1969 ft | 3 kts | 197° |
| 2026-05-07 21:56 | 40.49422 | -3.56235 | 1968 ft | 0 kts | 201° |
| 2026-05-07 21:56 | 40.49415 | -3.56239 | 1963 ft | 1 kts | 213° |
| 2026-05-07 21:57 | 40.49392 | -3.56269 | 1964 ft | 5 kts | 261° |
| 2026-05-07 21:57 | 40.49392 | -3.56302 | 1968 ft | 2 kts | 269° |
| 2026-05-07 21:57 | 40.49392 | -3.56319 | 1968 ft | 2 kts | 269° |
| 2026-05-07 21:57 | 40.49392 | -3.56330 | 1971 ft | 1 kts | 269° |
| 2026-05-07 21:58 | 40.49392 | -3.56337 | 1975 ft | 0 kts | 269° |
| 2026-05-07 21:58 | 40.49392 | -3.56340 | 1975 ft | 0 kts | 269° |
| 2026-05-07 21:58 | 40.49392 | -3.56343 | 1975 ft | 0 kts | 269° |
| 2026-05-07 21:58 | 40.49392 | -3.56345 | 1975 ft | 0 kts | 269° |